Time;durP1;ratioP1;P1;durP2;ratioP2;P2;SDS_P1;SDS_P2;PMS_P1;PMS_P2;Temp;Humidity;BMP_temperature;BMP_pressure;BME280_temperature;BME280_humidity;BME280_pressure;Samples;Min_cycle;Max_cycle;Signal;HPM_P1;HPM_P2
2021/08/23 00:02:16;;;;;;;37.55;25.67;;;16.90;99.10;;;;;;4954504;29;20039;-59
2021/08/23 00:04:42;;;;;;;33.58;24.13;;;16.90;98.90;;;;;;4954927;29;20046;-60
2021/08/23 00:07:07;;;;;;;30.83;20.15;;;16.90;98.90;;;;;;4954235;28;20411;-60
2021/08/23 00:09:33;;;;;;;35.42;24.13;;;16.90;98.90;;;;;;4955067;29;20042;-60
2021/08/23 00:11:59;;;;;;;34.05;22.85;;;16.90;98.70;;;;;;4955369;29;20047;-60
2021/08/23 00:14:25;;;;;;;32.10;23.15;;;16.80;98.80;;;;;;4955093;29;20111;-59
2021/08/23 00:16:51;;;;;;;34.70;23.60;;;16.80;98.70;;;;;;4954459;28;20118;-60
2021/08/23 00:19:17;;;;;;;26.88;19.23;;;16.70;98.90;;;;;;4954579;29;20055;-59
2021/08/23 00:21:44;;;;;;;31.50;21.60;;;16.70;99.10;;;;;;4954681;29;20491;-60
2021/08/23 00:24:21;;;;;;;26.27;20.38;;;16.70;98.70;;;;;;4949585;29;20042;-61
2021/08/23 00:26:58;;;;;;;28.27;21.33;;;16.90;98.30;;;;;;4955005;28;20047;-57
2021/08/23 00:29:24;;;;;;;30.33;20.85;;;16.70;98.50;;;;;;4954209;28;20112;-60
2021/08/23 00:31:51;;;;;;;29.90;19.92;;;16.70;98.90;;;;;;4954819;29;20131;-60
2021/08/23 00:34:17;;;;;;;30.98;20.80;;;16.70;99.00;;;;;;4953842;28;20047;-60
2021/08/23 00:36:43;;;;;;;26.42;19.20;;;16.70;99.00;;;;;;4952238;29;20054;-60
2021/08/23 00:39:10;;;;;;;24.60;18.92;;;16.70;98.80;;;;;;4954646;28;20044;-61
2021/08/23 00:41:36;;;;;;;23.10;16.90;;;16.70;98.70;;;;;;4954470;28;20047;-60
2021/08/23 00:44:04;;;;;;;20.70;14.18;;;16.70;98.50;;;;;;4954878;29;20102;-60
2021/08/23 00:46:29;;;;;;;15.57;11.27;;;16.70;98.10;;;;;;4946794;28;20137;-60
2021/08/23 00:48:55;;;;;;;23.98;15.45;;;16.80;97.50;;;;;;4953864;28;20492;-60
2021/08/23 00:51:21;;;;;;;20.05;16.17;;;16.80;97.60;;;;;;4954426;29;20047;-60
2021/08/23 00:53:48;;;;;;;19.02;14.73;;;16.70;97.60;;;;;;4953627;28;20718;-60
2021/08/23 00:56:18;;;;;;;21.13;16.20;;;16.60;97.80;;;;;;4952949;28;20098;-59
2021/08/23 00:58:44;;;;;;;19.15;15.02;;;16.60;98.10;;;;;;4952356;28;20072;-58
2021/08/23 01:01:28;;;;;;;20.73;15.52;;;16.50;98.20;;;;;;4953715;29;20139;-59
2021/08/23 01:04:02;;;;;;;17.63;13.70;;;16.50;98.40;;;;;;4949143;29;20123;-60
2021/08/23 01:06:30;;;;;;;20.98;15.48;;;16.40;98.50;;;;;;4953047;29;20103;-61
2021/08/23 01:09:02;;;;;;;19.45;14.40;;;16.50;98.20;;;;;;4951762;29;20118;-59
2021/08/23 01:11:33;;;;;;;20.83;14.32;;;16.50;98.10;;;;;;4954205;29;20035;-60
2021/08/23 01:13:59;;;;;;;18.42;14.23;;;16.70;98.20;;;;;;4952958;29;20543;-61
2021/08/23 01:16:25;;;;;;;20.45;13.57;;;16.50;98.00;;;;;;4953760;29;20138;-58
2021/08/23 01:18:50;;;;;;;18.27;14.43;;;16.60;97.50;;;;;;4953008;28;20506;-61
2021/08/23 01:21:21;;;;;;;21.65;14.25;;;16.50;97.80;;;;;;4953776;28;20045;-60
2021/08/23 01:23:49;;;;;;;22.83;14.70;;;16.60;97.40;;;;;;4934810;29;20122;-60
2021/08/23 01:26:21;;;;;;;19.98;14.23;;;16.80;96.80;;;;;;4951902;28;20043;-61
2021/08/23 01:28:51;;;;;;;;;;;16.70;97.00;;;;;;4953528;28;20051;-60
2021/08/23 01:31:42;;;;;;;22.55;13.73;;;16.60;97.10;;;;;;4953513;29;19922;-60
2021/08/23 01:34:09;;;;;;;24.25;15.55;;;16.60;97.50;;;;;;4953526;29;20058;-60
2021/08/23 01:36:35;;;;;;;23.38;15.35;;;16.60;97.10;;;;;;4952827;28;20566;-60
2021/08/23 01:39:02;;;;;;;25.17;16.30;;;16.60;97.00;;;;;;4953352;28;20143;-61
2021/08/23 01:41:27;;;;;;;26.20;16.70;;;16.50;97.60;;;;;;4953415;29;20110;-60
2021/08/23 01:43:53;;;;;;;27.25;15.90;;;16.50;97.40;;;;;;4954096;29;20578;-60
2021/08/23 01:46:18;;;;;;;26.88;16.27;;;16.50;97.50;;;;;;4949230;29;20039;-59
2021/08/23 01:48:46;;;;;;;23.63;15.98;;;16.50;97.60;;;;;;4952838;28;20043;-60
2021/08/23 01:51:11;;;;;;;24.23;16.23;;;16.40;97.70;;;;;;4951069;28;20423;-60
2021/08/23 01:53:37;;;;;;;23.65;15.90;;;16.40;97.80;;;;;;4953576;29;20126;-60
2021/08/23 01:56:03;;;;;;;23.85;16.02;;;16.40;97.80;;;;;;4953689;29;20491;-59
2021/08/23 01:58:29;;;;;;;24.95;15.63;;;16.40;97.80;;;;;;4952787;28;20078;-60
2021/08/23 02:00:55;;;;;;;22.80;15.85;;;16.40;98.00;;;;;;4953017;29;20070;-59
2021/08/23 02:03:25;;;;;;;26.50;16.58;;;16.40;98.20;;;;;;4952012;29;20046;-60
2021/08/23 02:05:50;;;;;;;26.85;15.85;;;16.40;98.20;;;;;;4948417;29;20055;-60
2021/08/23 02:08:16;;;;;;;24.80;16.35;;;16.40;98.20;;;;;;4952813;28;20134;-60
2021/08/23 02:10:42;;;;;;;25.00;15.35;;;16.40;98.30;;;;;;4953150;29;20094;-60
2021/08/23 02:13:07;;;;;;;24.23;14.90;;;16.40;98.20;;;;;;4953374;29;20491;-60
2021/08/23 02:15:33;;;;;;;24.25;15.38;;;16.50;98.00;;;;;;4953576;29;20047;-61
2021/08/23 02:17:58;;;;;;;21.23;15.07;;;16.40;98.00;;;;;;4952616;29;20496;-60
2021/08/23 02:20:24;;;;;;;22.55;15.18;;;16.40;98.10;;;;;;4952862;28;20733;-60
2021/08/23 02:22:50;;;;;;;19.35;13.48;;;16.50;98.10;;;;;;4953070;29;20039;-59
2021/08/23 02:25:22;;;;;;;23.17;15.18;;;16.40;98.00;;;;;;4953046;29;20047;-59
2021/08/23 02:27:51;;;;;;;22.95;14.98;;;16.40;98.30;;;;;;4951194;28;20130;-60
2021/08/23 02:30:17;;;;;;;21.02;14.73;;;16.40;98.50;;;;;;4953200;29;20061;-58
2021/08/23 02:32:43;;;;;;;21.88;14.32;;;16.50;98.30;;;;;;4950307;29;20537;-60
2021/08/23 02:35:09;;;;;;;21.98;13.35;;;16.50;98.30;;;;;;4952888;29;20077;-60
2021/08/23 02:37:35;;;;;;;20.45;13.93;;;16.60;98.00;;;;;;4951844;29;20043;-60
2021/08/23 02:40:03;;;;;;;19.30;13.02;;;16.60;98.00;;;;;;4953100;29;20046;-60
2021/08/23 02:42:28;;;;;;;21.17;14.30;;;16.50;98.10;;;;;;4946705;29;20050;-60
2021/08/23 02:44:54;;;;;;;24.13;14.48;;;16.60;98.00;;;;;;4952501;28;20039;-58
2021/08/23 02:47:19;;;;;;;22.02;14.90;;;16.50;98.20;;;;;;4952027;28;20054;-60
2021/08/23 02:49:45;;;;;;;19.85;13.70;;;16.40;98.50;;;;;;4952424;28;20043;-60
2021/08/23 02:52:11;;;;;;;23.35;14.45;;;16.50;98.30;;;;;;4952972;29;20061;-60
2021/08/23 02:54:37;;;;;;;20.40;14.55;;;16.50;98.40;;;;;;4951794;29;20051;-60
2021/08/23 02:57:03;;;;;;;25.27;14.40;;;16.40;98.40;;;;;;4951933;28;20503;-60
2021/08/23 02:59:28;;;;;;;23.55;13.80;;;16.50;98.10;;;;;;4951737;29;20502;-59
2021/08/23 03:01:54;;;;;;;17.33;12.13;;;16.50;97.90;;;;;;4951920;28;20126;-60
2021/08/23 03:04:19;;;;;;;21.48;13.15;;;16.50;98.00;;;;;;4952641;29;20109;-60
2021/08/23 03:06:45;;;;;;;19.90;12.70;;;16.50;97.90;;;;;;4951688;28;20082;-60
2021/08/23 03:09:11;;;;;;;19.02;11.63;;;16.50;98.00;;;;;;4952610;29;20059;-60
2021/08/23 03:11:36;;;;;;;19.40;11.40;;;16.50;97.90;;;;;;4951899;29;20091;-60
2021/08/23 03:14:03;;;;;;;17.98;10.32;;;16.50;97.80;;;;;;4953190;29;20134;-60
2021/08/23 03:16:28;;;;;;;16.38;10.93;;;16.60;97.60;;;;;;4952361;29;20058;-61
2021/08/23 03:18:54;;;;;;;13.90;9.60;;;16.60;97.60;;;;;;4952155;28;20039;-61
2021/08/23 03:21:20;;;;;;;19.13;11.52;;;16.60;97.50;;;;;;4952874;29;20050;-60
2021/08/23 03:23:46;;;;;;;15.27;9.75;;;16.50;97.60;;;;;;4952737;29;20039;-60
2021/08/23 03:26:12;;;;;;;15.73;10.32;;;16.50;97.70;;;;;;4952511;29;20538;-60
2021/08/23 03:28:38;;;;;;;16.25;10.13;;;16.40;97.70;;;;;;4952205;28;20047;-60
2021/08/23 03:31:04;;;;;;;15.77;9.18;;;16.40;97.90;;;;;;4933704;29;20038;-60
2021/08/23 03:33:30;;;;;;;19.90;9.45;;;16.40;97.60;;;;;;4951971;29;20035;-57
2021/08/23 03:35:55;;;;;;;15.98;9.10;;;16.40;97.60;;;;;;4951283;29;20039;-61
2021/08/23 03:38:21;;;;;;;14.07;8.65;;;16.50;97.40;;;;;;4951250;29;20392;-59
2021/08/23 03:40:47;;;;;;;13.95;8.15;;;16.40;97.60;;;;;;4951713;29;20269;-60
2021/08/23 03:43:12;;;;;;;12.35;8.18;;;16.40;97.50;;;;;;4951788;29;20070;-61
2021/08/23 03:45:38;;;;;;;13.15;8.25;;;16.40;97.20;;;;;;4952008;29;20035;-60
2021/08/23 03:48:04;;;;;;;15.05;7.43;;;16.40;97.30;;;;;;4950900;28;20495;-60
2021/08/23 03:50:30;;;;;;;12.98;7.18;;;16.40;97.10;;;;;;4950585;29;20488;-56
2021/08/23 03:52:56;;;;;;;11.98;7.60;;;16.40;97.20;;;;;;4950987;29;20035;-59
2021/08/23 03:55:22;;;;;;;11.07;7.30;;;16.40;97.40;;;;;;4950831;29;20046;-61
2021/08/23 03:57:48;;;;;;;14.57;7.90;;;16.40;96.90;;;;;;4950945;28;20507;-60
2021/08/23 04:00:13;;;;;;;12.38;7.47;;;16.50;97.00;;;;;;4950742;29;20067;-57
2021/08/23 04:02:39;;;;;;;14.07;7.32;;;16.40;97.00;;;;;;4950801;29;20042;-60
2021/08/23 04:05:06;;;;;;;12.77;7.78;;;16.40;97.20;;;;;;4950855;29;20043;-59
2021/08/23 04:07:31;;;;;;;13.20;7.22;;;16.40;97.20;;;;;;4950222;28;20477;-61
2021/08/23 04:09:57;;;;;;;12.18;6.32;;;16.40;97.20;;;;;;4951829;29;20134;-61
2021/08/23 04:12:24;;;;;;;11.85;6.75;;;16.40;97.10;;;;;;4948063;29;20047;-59
2021/08/23 04:14:49;;;;;;;9.52;6.50;;;16.30;97.30;;;;;;4953537;28;20051;-61
2021/08/23 04:17:15;;;;;;;10.82;6.78;;;16.40;97.10;;;;;;4954107;29;20392;-60
2021/08/23 04:19:41;;;;;;;12.75;6.97;;;16.30;97.10;;;;;;4954600;29;20492;-60
2021/08/23 04:22:06;;;;;;;11.40;6.95;;;16.30;97.20;;;;;;4952436;29;20047;-59
2021/08/23 04:24:32;;;;;;;14.75;7.60;;;16.40;96.90;;;;;;4938209;29;20042;-61
2021/08/23 04:26:58;;;;;;;14.35;7.55;;;16.30;97.00;;;;;;4952065;29;20103;-60
2021/08/23 04:29:23;;;;;;;14.32;7.28;;;16.30;97.20;;;;;;4953838;29;20396;-61
2021/08/23 04:31:49;;;;;;;12.63;6.57;;;16.30;97.20;;;;;;4955485;29;20134;-60
2021/08/23 04:34:15;;;;;;;11.90;7.28;;;16.40;96.80;;;;;;4954452;29;21284;-59
2021/08/23 04:36:40;;;;;;;17.17;7.32;;;16.30;97.00;;;;;;4954207;28;20040;-58
2021/08/23 04:39:06;;;;;;;11.13;6.93;;;16.30;97.20;;;;;;4954614;28;20047;-60
2021/08/23 04:41:39;;;;;;;12.90;6.25;;;16.30;97.10;;;;;;4955034;29;20068;-59
2021/08/23 04:44:06;;;;;;;12.40;6.40;;;16.30;97.30;;;;;;4954671;29;20529;-59
2021/08/23 04:46:32;;;;;;;14.20;6.32;;;16.30;97.30;;;;;;4954336;28;20567;-59
2021/08/23 04:48:57;;;;;;;9.05;6.32;;;16.30;97.40;;;;;;4937890;29;20051;-59
2021/08/23 04:51:23;;;;;;;13.40;6.57;;;16.30;97.50;;;;;;4954837;29;20039;-59
2021/08/23 04:53:50;;;;;;;12.63;6.53;;;16.20;97.60;;;;;;4955031;29;20059;-59
2021/08/23 04:56:16;;;;;;;8.57;5.53;;;16.30;97.60;;;;;;4954235;29;20460;-59
2021/08/23 04:58:42;;;;;;;10.25;5.88;;;16.30;97.60;;;;;;4954421;28;20050;-59
2021/08/23 05:01:08;;;;;;;10.38;6.70;;;16.30;97.70;;;;;;4954136;29;20047;-59
2021/08/23 05:03:34;;;;;;;10.50;6.10;;;16.30;97.70;;;;;;4954828;28;20043;-59
2021/08/23 05:06:00;;;;;;;10.77;6.45;;;16.30;97.80;;;;;;4954680;29;20389;-59
2021/08/23 05:08:25;;;;;;;12.85;6.50;;;16.20;97.80;;;;;;4954238;28;20430;-59
2021/08/23 05:10:51;;;;;;;10.68;6.25;;;16.30;97.90;;;;;;4954260;28;20143;-58
2021/08/23 05:13:17;;;;;;;12.15;6.25;;;16.30;98.00;;;;;;4954483;29;20130;-60
2021/08/23 05:15:42;;;;;;;12.82;6.13;;;16.30;98.10;;;;;;4954604;29;20460;-59
2021/08/23 05:18:09;;;;;;;11.75;6.90;;;16.30;98.10;;;;;;4954080;29;20039;-60
2021/08/23 05:20:35;;;;;;;14.77;6.32;;;16.30;98.20;;;;;;4953741;29;20036;-59
2021/08/23 05:23:01;;;;;;;17.40;7.60;;;16.20;98.20;;;;;;4954151;29;20047;-59
2021/08/23 05:25:26;;;;;;;10.82;6.55;;;16.20;98.20;;;;;;4953021;28;20122;-59
2021/08/23 05:27:52;;;;;;;12.65;6.20;;;16.20;98.30;;;;;;4953961;28;20047;-59
2021/08/23 05:30:18;;;;;;;11.27;6.70;;;16.20;98.30;;;;;;4954377;29;20047;-59
2021/08/23 05:32:44;;;;;;;10.45;6.60;;;16.30;98.30;;;;;;4954167;29;20078;-59
2021/08/23 05:35:10;;;;;;;14.13;6.25;;;16.30;98.20;;;;;;4954319;29;20047;-59
2021/08/23 05:37:36;;;;;;;13.10;6.57;;;16.20;98.30;;;;;;4952980;28;20063;-59
2021/08/23 05:40:02;;;;;;;13.23;6.47;;;16.30;98.30;;;;;;4953966;29;20459;-58
2021/08/23 05:42:30;;;;;;;11.88;6.60;;;16.20;98.40;;;;;;4953717;29;20035;-59
2021/08/23 05:44:56;;;;;;;13.73;6.65;;;16.30;98.60;;;;;;4954248;29;20043;-59
2021/08/23 05:47:22;;;;;;;11.95;6.18;;;16.30;98.30;;;;;;4953417;28;20200;-59
2021/08/23 05:49:49;;;;;;;12.32;6.00;;;16.30;98.40;;;;;;4953864;29;20047;-58
2021/08/23 05:52:14;;;;;;;11.52;6.00;;;16.30;98.40;;;;;;4936756;29;20101;-59
2021/08/23 05:54:40;;;;;;;13.23;6.13;;;16.30;98.40;;;;;;4948231;29;20051;-59
2021/08/23 05:57:07;;;;;;;12.10;6.43;;;16.30;98.40;;;;;;4945108;29;20039;-59
2021/08/23 05:59:32;;;;;;;10.13;5.80;;;16.30;98.30;;;;;;4950749;29;20039;-59
2021/08/23 06:01:58;;;;;;;13.70;5.85;;;16.30;98.30;;;;;;4934713;29;20175;-59
2021/08/23 06:04:24;;;;;;;12.27;6.03;;;16.30;98.60;;;;;;4949069;29;20047;-59
2021/08/23 06:06:51;;;;;;;11.52;6.03;;;16.30;98.20;;;;;;4953371;28;20499;-59
2021/08/23 06:09:18;;;;;;;13.07;5.93;;;16.30;98.20;;;;;;4940125;29;20043;-59
2021/08/23 06:11:44;;;;;;;12.13;5.63;;;16.50;97.70;;;;;;4953490;29;20407;-59
2021/08/23 06:14:10;;;;;;;15.43;5.18;;;16.40;97.60;;;;;;4953496;29;20464;-59
2021/08/23 06:16:35;;;;;;;9.50;5.65;;;16.40;97.80;;;;;;4953036;29;20035;-59
2021/08/23 06:19:01;;;;;;;13.73;5.18;;;16.40;97.90;;;;;;4952972;28;20137;-59
2021/08/23 06:21:27;;;;;;;10.55;5.03;;;16.40;97.90;;;;;;4953850;29;20130;-59
2021/08/23 06:23:53;;;;;;;8.80;5.00;;;16.50;97.70;;;;;;4952839;29;20555;-59
2021/08/23 06:26:18;;;;;;;12.80;5.10;;;16.50;97.70;;;;;;4953325;29;20140;-59
2021/08/23 06:28:45;;;;;;;11.50;5.05;;;16.70;97.00;;;;;;4952740;28;20412;-59
2021/08/23 06:31:10;;;;;;;10.80;4.45;;;16.80;96.60;;;;;;4945668;29;20039;-59
2021/08/23 06:33:36;;;;;;;11.50;4.88;;;16.80;96.50;;;;;;4947418;29;20050;-59
2021/08/23 06:36:02;;;;;;;8.73;4.97;;;16.80;96.80;;;;;;4951976;29;20526;-59
2021/08/23 06:38:28;;;;;;;8.38;4.47;;;16.70;96.90;;;;;;4952579;28;20079;-59
2021/08/23 06:40:54;;;;;;;10.98;5.07;;;16.70;96.90;;;;;;4952565;29;20067;-59
2021/08/23 06:43:19;;;;;;;10.38;4.70;;;16.80;97.00;;;;;;4953077;28;20050;-59
2021/08/23 06:45:45;;;;;;;7.60;3.97;;;16.80;97.10;;;;;;4952771;29;20062;-59
2021/08/23 06:48:11;;;;;;;9.57;4.20;;;16.90;97.20;;;;;;4945578;29;20397;-59
2021/08/23 06:50:36;;;;;;;6.35;3.50;;;17.00;96.70;;;;;;4946995;29;20059;-59
2021/08/23 06:53:03;;;;;;;10.18;4.13;;;17.10;96.30;;;;;;4952391;29;20094;-59
2021/08/23 06:55:30;;;;;;;11.30;4.20;;;17.20;95.90;;;;;;4953118;29;20043;-59
2021/08/23 06:57:55;;;;;;;13.65;4.32;;;17.20;96.00;;;;;;4952552;28;20055;-59
2021/08/23 07:00:22;;;;;;;11.15;4.55;;;17.20;96.20;;;;;;4952893;29;20467;-59
2021/08/23 07:02:47;;;;;;;10.90;4.10;;;17.20;96.30;;;;;;4952333;28;20416;-59
2021/08/23 07:05:13;;;;;;;14.25;4.80;;;17.30;96.00;;;;;;4953059;29;20051;-60
2021/08/23 07:07:39;;;;;;;13.98;4.93;;;17.40;95.20;;;;;;4951927;28;20054;-59
2021/08/23 07:10:08;;;;;;;10.93;4.47;;;17.60;94.30;;;;;;4953169;28;20055;-59
2021/08/23 07:12:35;;;;;;;9.02;3.92;;;17.70;94.10;;;;;;4952783;29;20067;-59
2021/08/23 07:15:00;;;;;;;12.00;5.13;;;17.60;94.90;;;;;;4947842;28;20067;-59
2021/08/23 07:17:28;;;;;;;9.77;4.15;;;17.60;94.60;;;;;;4943722;28;20404;-59
2021/08/23 07:19:53;;;;;;;13.15;5.50;;;17.70;94.30;;;;;;4952273;29;20106;-59
2021/08/23 07:22:19;;;;;;;8.23;4.28;;;17.60;94.80;;;;;;4951916;29;20031;-59
2021/08/23 07:24:46;;;;;;;10.00;4.85;;;17.70;94.40;;;;;;4953032;29;20046;-59
2021/08/23 07:27:15;;;;;;;9.07;4.38;;;17.60;94.70;;;;;;4952336;28;20488;-59
2021/08/23 07:29:42;;;;;;;10.57;4.68;;;17.60;94.90;;;;;;4952273;29;20501;-59
2021/08/23 07:32:08;;;;;;;11.88;4.50;;;17.60;94.90;;;;;;4952282;29;20138;-59
2021/08/23 07:34:34;;;;;;;11.48;4.45;;;17.60;95.10;;;;;;4935271;29;20058;-59
2021/08/23 07:37:03;;;;;;;8.15;4.13;;;17.60;95.50;;;;;;4951333;29;20051;-59
2021/08/23 07:39:28;;;;;;;10.20;4.65;;;17.70;95.30;;;;;;4952329;29;20070;-59
2021/08/23 07:41:54;;;;;;;8.30;4.00;;;17.80;95.00;;;;;;4952743;28;20131;-59
2021/08/23 07:44:20;;;;;;;10.70;4.00;;;17.90;94.90;;;;;;4952119;28;20456;-59
2021/08/23 07:46:45;;;;;;;9.48;4.18;;;18.00;95.10;;;;;;4952335;28;20051;-59
2021/08/23 07:49:11;;;;;;;9.25;3.90;;;18.10;94.00;;;;;;4952975;28;20423;-59
2021/08/23 07:51:37;;;;;;;8.07;3.70;;;18.20;94.40;;;;;;4956280;29;20070;-58
2021/08/23 07:54:03;;;;;;;9.30;3.60;;;18.30;93.50;;;;;;4955673;29;20043;-60
2021/08/23 07:56:29;;;;;;;8.07;4.38;;;18.40;92.40;;;;;;4956125;29;20043;-59
2021/08/23 07:58:57;;;;;;;7.72;3.55;;;18.50;92.50;;;;;;4955580;29;20051;-59
2021/08/23 08:01:24;;;;;;;10.45;3.80;;;18.50;92.30;;;;;;4955712;28;20099;-59
2021/08/23 08:03:50;;;;;;;9.35;3.80;;;18.50;92.20;;;;;;4955734;29;20443;-59
2021/08/23 08:06:16;;;;;;;7.35;3.75;;;18.60;91.80;;;;;;4955292;29;20039;-59
2021/08/23 08:08:42;;;;;;;7.65;3.20;;;18.50;91.90;;;;;;4955908;29;20080;-59
2021/08/23 08:11:08;;;;;;;6.20;3.22;;;18.60;91.20;;;;;;4955295;29;20105;-59
2021/08/23 08:13:34;;;;;;;8.15;3.20;;;18.50;91.60;;;;;;4955830;29;20043;-59
2021/08/23 08:16:01;;;;;;;8.93;3.35;;;18.50;92.10;;;;;;4955309;29;20134;-59
2021/08/23 08:18:27;;;;;;;7.63;3.10;;;18.60;91.90;;;;;;4941263;29;20043;-59
2021/08/23 08:20:52;;;;;;;8.80;3.10;;;18.70;92.10;;;;;;4955645;29;20050;-59
2021/08/23 08:23:18;;;;;;;7.15;3.33;;;18.70;92.00;;;;;;4955617;29;20036;-59
2021/08/23 08:25:44;;;;;;;6.13;3.05;;;18.90;90.80;;;;;;4950425;29;20091;-59
2021/08/23 08:28:11;;;;;;;7.50;2.97;;;18.90;91.30;;;;;;4947384;29;20110;-59
2021/08/23 08:30:41;;;;;;;6.07;3.03;;;19.00;91.70;;;;;;4951177;28;20052;-59
2021/08/23 08:33:07;;;;;;;8.07;2.85;;;19.00;91.50;;;;;;4945944;29;20541;-59
2021/08/23 08:35:32;;;;;;;8.88;3.08;;;19.10;91.80;;;;;;4954770;29;20067;-59
2021/08/23 08:37:58;;;;;;;7.60;2.83;;;19.20;91.50;;;;;;4954863;28;20058;-59
2021/08/23 08:40:24;;;;;;;9.60;2.50;;;19.30;90.50;;;;;;4954823;29;20036;-59
2021/08/23 08:42:51;;;;;;;5.00;1.90;;;19.50;86.20;;;;;;4942267;29;20059;-59
2021/08/23 08:45:17;;;;;;;4.20;1.88;;;19.60;83.70;;;;;;4955211;28;20415;-60
2021/08/23 08:47:44;;;;;;;6.70;2.17;;;19.50;84.20;;;;;;4954090;29;20135;-59
2021/08/23 08:50:14;;;;;;;6.18;2.30;;;19.40;85.10;;;;;;4955106;28;20051;-59
2021/08/23 08:52:42;;;;;;;5.30;2.08;;;19.50;85.40;;;;;;4954657;29;20065;-59
2021/08/23 08:55:09;;;;;;;7.03;2.10;;;19.50;84.80;;;;;;4955097;29;20083;-59
2021/08/23 08:57:36;;;;;;;4.60;2.15;;;19.50;84.60;;;;;;4953999;29;20452;-58
2021/08/23 09:00:03;;;;;;;6.03;1.73;;;19.60;83.00;;;;;;4954521;28;20118;-59
2021/08/23 09:02:29;;;;;;;5.85;1.75;;;19.60;85.50;;;;;;4954485;29;20040;-59
2021/08/23 09:04:55;;;;;;;6.07;2.00;;;19.70;85.60;;;;;;4954804;29;20051;-59
2021/08/23 09:07:20;;;;;;;4.10;2.00;;;19.80;84.20;;;;;;4954739;28;20070;-58
2021/08/23 09:09:46;;;;;;;4.28;1.85;;;19.80;84.50;;;;;;4954262;28;20055;-59
2021/08/23 09:12:14;;;;;;;4.68;1.88;;;19.90;81.80;;;;;;4954782;29;20531;-59
2021/08/23 09:14:52;;;;;;;5.63;1.60;;;20.00;82.20;;;;;;4953906;28;20043;-59
2021/08/23 09:17:22;;;;;;;3.08;1.65;;;20.10;80.30;;;;;;4954293;29;20500;-59
2021/08/23 09:20:14;;;;;;;4.72;1.90;;;20.10;80.10;;;;;;4954309;29;20427;-59
2021/08/23 09:22:40;;;;;;;3.78;1.80;;;20.10;80.50;;;;;;4942925;29;20492;-59
2021/08/23 09:25:08;;;;;;;6.55;2.25;;;20.10;81.10;;;;;;4954848;29;20242;-59
2021/08/23 09:27:38;;;;;;;2.15;1.42;;;20.10;81.30;;;;;;4954085;28;20047;-59
2021/08/23 09:30:11;;;;;;;5.78;1.63;;;20.10;80.40;;;;;;4954288;29;20090;-59
2021/08/23 09:32:50;;;;;;;3.80;1.58;;;20.20;78.40;;;;;;4953929;29;20416;-59
2021/08/23 09:35:30;;;;;;;4.68;2.05;;;20.20;77.30;;;;;;4952539;29;20043;-59
2021/08/23 09:37:57;;;;;;;4.72;2.15;;;20.20;76.80;;;;;;4941853;29;20098;-59
2021/08/23 09:40:31;;;;;;;3.50;1.67;;;20.20;77.20;;;;;;4954093;29;20051;-59
2021/08/23 09:42:59;;;;;;;4.10;1.77;;;20.30;79.00;;;;;;4936102;29;20054;-59
2021/08/23 09:45:25;;;;;;;2.90;1.50;;;20.40;81.10;;;;;;4952370;29;20051;-59
2021/08/23 09:48:02;;;;;;;5.00;1.70;;;20.50;78.50;;;;;;4953240;29;20066;-59
2021/08/23 09:50:39;;;;;;;3.85;1.45;;;20.50;73.30;;;;;;4953820;29;20212;-59
2021/08/23 09:53:14;;;;;;;5.97;1.55;;;20.50;71.60;;;;;;4952584;29;20090;-59
2021/08/23 09:55:42;;;;;;;4.60;1.65;;;20.60;70.10;;;;;;4953615;28;20086;-58
2021/08/23 09:58:09;;;;;;;4.15;1.92;;;20.40;72.50;;;;;;4951751;28;20094;-59
2021/08/23 10:00:37;;;;;;;3.08;1.40;;;20.40;74.30;;;;;;4951838;29;20043;-59
2021/08/23 10:03:13;;;;;;;3.40;1.58;;;20.50;73.90;;;;;;4952292;28;20039;-59
2021/08/23 10:05:43;;;;;;;3.08;1.50;;;20.50;73.70;;;;;;4952037;29;20047;-59
2021/08/23 10:08:12;;;;;;;3.17;1.48;;;20.50;75.80;;;;;;4953046;29;20042;-59
2021/08/23 10:10:39;;;;;;;3.58;1.60;;;20.50;75.30;;;;;;4953515;29;20129;-59
2021/08/23 10:13:05;;;;;;;6.80;1.65;;;20.60;75.40;;;;;;4952285;28;20067;-59
2021/08/23 10:15:31;;;;;;;2.78;1.40;;;20.60;74.70;;;;;;4952030;29;20031;-59
2021/08/23 10:18:01;;;;;;;3.20;1.60;;;20.70;71.80;;;;;;4951675;28;20114;-59
2021/08/23 10:20:26;;;;;;;6.18;1.88;;;20.70;69.30;;;;;;4951475;29;20401;-59
2021/08/23 10:22:53;;;;;;;2.70;1.60;;;20.70;68.00;;;;;;4953131;28;20071;-58
2021/08/23 10:25:19;;;;;;;4.18;1.92;;;20.90;64.30;;;;;;4953036;28;20044;-59
2021/08/23 10:27:44;;;;;;;4.57;1.90;;;20.90;67.90;;;;;;4952797;28;20055;-59
2021/08/23 10:30:25;;;;;;;4.70;2.08;;;21.00;65.50;;;;;;4953631;29;20051;-59
2021/08/23 10:32:52;;;;;;;4.40;1.92;;;21.00;64.30;;;;;;4953193;29;20043;-59
2021/08/23 10:35:25;;;;;;;4.40;1.55;;;21.00;62.00;;;;;;4953218;28;20047;-59
2021/08/23 10:37:54;;;;;;;3.42;1.80;;;21.10;62.00;;;;;;4939672;29;20097;-58
2021/08/23 10:40:34;;;;;;;5.43;1.90;;;21.20;60.10;;;;;;4953057;28;20054;-59
2021/08/23 10:43:15;;;;;;;4.60;2.28;;;21.10;64.80;;;;;;4941044;29;20066;-59
2021/08/23 10:45:41;;;;;;;4.35;1.90;;;21.10;63.60;;;;;;4952972;29;20422;-58
2021/08/23 10:48:19;;;;;;;4.35;1.75;;;21.20;58.10;;;;;;4952580;29;20507;-59
2021/08/23 10:51:04;;;;;;;2.50;1.58;;;21.20;64.20;;;;;;4952707;29;20054;-59
2021/08/23 10:53:38;;;;;;;3.35;1.80;;;21.30;64.80;;;;;;4952905;28;20051;-59
2021/08/23 10:56:18;;;;;;;4.05;1.85;;;21.40;60.40;;;;;;4952540;29;21926;-58
2021/08/23 10:58:45;;;;;;;3.13;1.80;;;21.30;63.20;;;;;;4952432;29;20048;-59
2021/08/23 11:01:22;;;;;;;4.90;2.00;;;21.20;61.60;;;;;;4952748;29;20040;-58
2021/08/23 11:04:08;;;;;;;3.88;1.88;;;21.30;63.30;;;;;;4952811;28;20125;-58
2021/08/23 11:06:35;;;;;;;6.15;2.10;;;21.30;65.00;;;;;;4952483;29;20058;-60
2021/08/23 11:09:12;;;;;;;6.00;2.25;;;21.40;62.60;;;;;;4952517;28;20047;-59
2021/08/23 11:11:40;;;;;;;4.63;2.28;;;21.40;62.60;;;;;;4952664;29;20090;-59
2021/08/23 11:14:21;;;;;;;3.80;1.90;;;21.40;63.30;;;;;;4952775;29;20043;-58
2021/08/23 11:16:51;;;;;;;3.90;1.92;;;21.40;60.50;;;;;;4952372;28;20047;-59
2021/08/23 11:19:20;;;;;;;5.22;1.83;;;21.50;58.40;;;;;;4952128;28;20058;-58
2021/08/23 11:21:54;;;;;;;4.10;2.05;;;21.50;59.30;;;;;;4938639;29;20098;-59
2021/08/23 11:24:19;;;;;;;4.13;1.80;;;21.50;59.50;;;;;;4955888;28;20415;-59
2021/08/23 11:27:00;;;;;;;3.45;1.65;;;21.40;61.00;;;;;;4956335;29;20043;-59
2021/08/23 11:29:27;;;;;;;3.35;1.75;;;21.40;58.50;;;;;;4945285;29;20046;-58
2021/08/23 11:32:04;;;;;;;2.80;1.90;;;21.60;56.70;;;;;;4956155;29;20090;-58
2021/08/23 11:34:29;;;;;;;3.20;1.38;;;21.60;54.40;;;;;;4944577;28;20043;-59
2021/08/23 11:37:06;;;;;;;3.47;1.63;;;21.50;56.20;;;;;;4955273;28;20058;-59
2021/08/23 11:39:34;;;;;;;3.35;1.63;;;21.60;55.70;;;;;;4943521;29;20055;-59
2021/08/23 11:42:03;;;;;;;3.55;1.65;;;21.60;57.10;;;;;;4956401;29;20039;-58
2021/08/23 11:44:29;;;;;;;3.38;1.60;;;21.60;57.50;;;;;;4938987;29;20047;-59
2021/08/23 11:46:58;;;;;;;4.20;1.90;;;21.70;56.40;;;;;;4955753;28;20110;-59
2021/08/23 11:49:28;;;;;;;3.03;1.60;;;21.60;57.70;;;;;;4955590;29;20110;-59
2021/08/23 11:51:54;;;;;;;4.00;1.70;;;21.60;58.20;;;;;;4956222;29;20047;-58
2021/08/23 11:54:21;;;;;;;3.25;1.98;;;21.60;59.80;;;;;;4955586;28;20495;-58
2021/08/23 11:56:47;;;;;;;2.97;1.80;;;21.80;57.60;;;;;;4955596;29;20051;-59
2021/08/23 11:59:14;;;;;;;5.15;1.67;;;21.80;56.60;;;;;;4955667;29;20043;-58
2021/08/23 12:01:40;;;;;;;3.78;1.70;;;21.90;57.40;;;;;;4955989;29;20045;-59
2021/08/23 12:04:05;;;;;;;4.40;1.90;;;21.90;59.80;;;;;;4956007;29;20039;-58
2021/08/23 12:06:35;;;;;;;4.07;1.38;;;21.90;59.00;;;;;;4955449;29;20051;-58
2021/08/23 12:09:02;;;;;;;4.05;1.67;;;22.00;58.60;;;;;;4955609;29;20044;-58
2021/08/23 12:11:44;;;;;;;3.50;1.52;;;22.10;59.00;;;;;;4955295;29;20146;-59
2021/08/23 12:14:18;;;;;;;2.05;1.38;;;22.10;54.70;;;;;;4955874;29;20058;-59
2021/08/23 12:16:45;;;;;;;2.35;1.52;;;22.10;53.50;;;;;;4955567;29;20047;-59
2021/08/23 12:19:12;;;;;;;4.00;1.50;;;22.00;54.00;;;;;;4955081;28;20043;-59
2021/08/23 12:21:39;;;;;;;2.67;1.42;;;22.00;55.50;;;;;;4955566;29;20039;-59
2021/08/23 12:24:09;;;;;;;2.78;1.50;;;22.00;56.10;;;;;;4955563;29;20047;-58
2021/08/23 12:26:38;;;;;;;5.75;1.60;;;22.10;55.40;;;;;;4955478;29;20084;-58
2021/08/23 12:29:25;;;;;;;3.60;1.70;;;22.10;55.10;;;;;;4954894;29;20138;-58
2021/08/23 12:31:56;;;;;;;4.55;1.60;;;22.10;57.20;;;;;;4955540;29;20054;-58
2021/08/23 12:34:25;;;;;;;3.67;1.40;;;22.10;58.90;;;;;;4955046;28;20073;-58
2021/08/23 12:36:51;;;;;;;2.20;1.30;;;22.20;54.00;;;;;;4954114;28;20408;-59
2021/08/23 12:39:19;;;;;;;2.90;1.40;;;22.30;51.90;;;;;;4954868;29;20404;-59
2021/08/23 12:41:49;;;;;;;3.30;1.40;;;22.20;54.90;;;;;;4945153;29;20047;-59